createdAt,value
2023-02-12T00:01:01.570Z,39.19
2023-02-12T00:03:28.583Z,38.83
2023-02-12T00:05:55.739Z,39.32
2023-02-12T00:08:22.795Z,38.81
2023-02-12T00:10:49.615Z,39.14
2023-02-12T00:13:16.496Z,39.48
2023-02-12T00:15:43.486Z,38.96
2023-02-12T00:18:10.804Z,39.03
2023-02-12T00:20:38.507Z,39.07
2023-02-12T00:23:06.100Z,39.46
2023-02-12T00:25:33.325Z,39.38
2023-02-12T00:28:00.169Z,39.77
2023-02-12T00:30:27.021Z,39.72
2023-02-12T00:32:53.899Z,39.59
2023-02-12T00:35:20.816Z,39.69
2023-02-12T00:37:47.781Z,39.75
2023-02-12T00:40:14.636Z,40.02
2023-02-12T00:42:41.493Z,39.98
2023-02-12T00:45:08.808Z,40.39
2023-02-12T00:47:35.661Z,40.42
2023-02-12T00:50:02.743Z,40.66
2023-02-12T00:52:29.581Z,40.47
2023-02-12T00:54:56.408Z,40.67
2023-02-12T00:57:23.370Z,40.72
2023-02-12T00:59:50.269Z,40.74
2023-02-12T01:02:18.387Z,40.92
2023-02-12T01:04:45.436Z,40.48
2023-02-12T01:07:12.309Z,41.05
2023-02-12T01:09:39.220Z,40.85
2023-02-12T01:12:06.511Z,40.85
2023-02-12T01:14:33.500Z,40.69
2023-02-12T01:17:00.424Z,40.86
2023-02-12T01:19:28.092Z,41.15
2023-02-12T01:21:55.045Z,40.97
2023-02-12T01:24:22.057Z,40.93
2023-02-12T01:26:48.941Z,41.28
2023-02-12T01:29:15.764Z,41.27
2023-02-12T01:31:43.081Z,41.08
2023-02-12T01:34:10.805Z,41.18
2023-02-12T01:36:38.163Z,41.38
2023-02-12T01:39:06.181Z,41.33
2023-02-12T01:41:34.594Z,41.66
2023-02-12T01:44:04.390Z,41.30
2023-02-12T01:46:31.095Z,41.30
2023-02-12T01:48:58.170Z,41.30
2023-02-12T01:51:26.230Z,41.67
2023-02-12T01:53:54.624Z,41.25
2023-02-12T01:56:22.019Z,41.88
2023-02-12T01:58:50.863Z,41.61
2023-02-12T02:01:20.026Z,41.79
2023-02-12T02:03:49.136Z,41.75
2023-02-12T02:06:18.488Z,41.44
2023-02-12T02:08:45.636Z,41.78
2023-02-12T02:11:15.898Z,41.63
2023-02-12T02:13:45.645Z,41.51
2023-02-12T02:16:15.736Z,41.32
2023-02-12T02:18:47.338Z,41.64
2023-02-12T02:21:17.307Z,41.41
2023-02-12T02:23:48.921Z,41.57
2023-02-12T02:26:18.808Z,41.75
2023-02-12T02:28:54.866Z,41.66
2023-02-12T02:31:27.769Z,41.58
2023-02-12T02:33:54.957Z,41.63
2023-02-12T02:36:25.843Z,41.99
2023-02-12T02:38:57.519Z,41.90
2023-02-12T02:41:29.299Z,41.72
2023-02-12T02:43:56.505Z,41.55
2023-02-12T02:46:29.337Z,41.64
2023-02-12T02:48:59.102Z,41.57
2023-02-12T02:51:28.832Z,41.90
2023-02-12T02:54:00.865Z,41.82
2023-02-12T02:56:29.346Z,42.08
2023-02-12T02:58:59.510Z,41.85
2023-02-12T03:01:31.454Z,41.90
2023-02-12T03:04:04.284Z,41.61
2023-02-12T03:06:36.561Z,42.08
2023-02-12T03:09:06.944Z,42.23
2023-02-12T03:11:34.719Z,41.97
2023-02-12T03:14:04.475Z,42.18
2023-02-12T03:16:33.256Z,42.02
2023-02-12T03:19:05.975Z,42.12
2023-02-12T03:21:37.792Z,42.03
2023-02-12T03:24:10.928Z,42.27
2023-02-12T03:26:44.308Z,41.94
2023-02-12T03:29:11.745Z,42.18
2023-02-12T03:31:41.578Z,42.45
2023-02-12T03:34:11.410Z,42.39
2023-02-12T03:36:39.453Z,42.46
2023-02-12T03:39:11.816Z,42.08
2023-02-12T03:41:41.606Z,42.43
2023-02-12T03:44:11.420Z,42.23
2023-02-12T03:46:38.520Z,42.09
2023-02-12T03:49:10.412Z,42.44
2023-02-12T03:51:40.135Z,42.34
2023-02-12T03:54:10.806Z,42.41
2023-02-12T03:56:41.991Z,42.40
2023-02-12T03:59:08.728Z,42.36
2023-02-12T04:01:36.318Z,42.01
2023-02-12T04:04:05.708Z,42.14
2023-02-12T04:06:32.740Z,42.22
2023-02-12T04:09:03.383Z,42.14
2023-02-12T04:11:35.290Z,42.37
2023-02-12T04:14:05.317Z,42.40
2023-02-12T04:16:37.932Z,42.06
2023-02-12T04:19:05.310Z,42.55
2023-02-12T04:21:33.362Z,42.40
2023-02-12T04:24:00.539Z,42.46
2023-02-12T04:26:34.592Z,42.23
2023-02-12T04:29:04.431Z,42.51
2023-02-12T04:31:35.802Z,42.10
2023-02-12T04:34:06.199Z,42.44
2023-02-12T04:36:35.725Z,42.23
2023-02-12T04:39:05.095Z,42.12
2023-02-12T04:41:32.071Z,42.55
2023-02-12T04:43:58.754Z,42.15
2023-02-12T04:46:25.555Z,42.13
2023-02-12T04:48:54.762Z,42.57
2023-02-12T04:51:21.478Z,42.15
2023-02-12T04:53:48.193Z,42.58
2023-02-12T04:56:15.024Z,42.29
2023-02-12T04:58:42.210Z,42.25
2023-02-12T05:01:10.291Z,42.38
2023-02-12T05:03:37.352Z,42.56
2023-02-12T05:06:05.396Z,42.27
2023-02-12T05:08:32.175Z,42.61
2023-02-12T05:11:03.739Z,42.74
2023-02-12T05:13:30.799Z,42.39
2023-02-12T05:15:58.244Z,42.60
2023-02-12T05:18:25.166Z,42.53
2023-02-12T05:20:55.124Z,42.56
2023-02-12T05:23:21.830Z,42.72
2023-02-12T05:25:48.560Z,42.69
2023-02-12T05:28:15.744Z,42.32
2023-02-12T05:30:42.548Z,42.43
2023-02-12T05:33:09.282Z,42.34
2023-02-12T05:35:36.219Z,42.73
2023-02-12T05:38:02.895Z,42.66
2023-02-12T05:40:29.615Z,42.67
2023-02-12T05:42:56.357Z,42.40
2023-02-12T05:45:28.145Z,42.46
2023-02-12T05:47:55.726Z,42.83
2023-02-12T05:50:22.409Z,42.60
2023-02-12T05:52:49.146Z,42.76
2023-02-12T05:55:15.834Z,42.86
2023-02-12T05:57:42.957Z,42.49
2023-02-12T06:00:10.333Z,42.40
2023-02-12T06:02:37.668Z,42.29
2023-02-12T06:05:04.847Z,42.62
2023-02-12T06:07:31.633Z,42.59
2023-02-12T06:09:59.422Z,42.59
2023-02-12T06:12:26.477Z,42.55
2023-02-12T06:14:53.605Z,42.92
2023-02-12T06:17:20.385Z,42.95
2023-02-12T06:19:47.166Z,42.87
2023-02-12T06:22:13.955Z,42.73
2023-02-12T06:24:40.620Z,42.65
2023-02-12T06:27:07.285Z,42.87
2023-02-12T06:29:33.943Z,42.94
2023-02-12T06:32:01.089Z,42.86
2023-02-12T06:34:27.864Z,42.66
2023-02-12T06:36:54.923Z,42.59
2023-02-12T06:39:21.680Z,43.00
2023-02-12T06:41:48.827Z,42.91
2023-02-12T06:44:20.904Z,42.85
2023-02-12T06:46:47.889Z,42.70
2023-02-12T06:49:16.911Z,42.77
2023-02-12T06:51:43.697Z,42.85
2023-02-12T06:54:12.894Z,43.12
2023-02-12T06:56:39.914Z,42.84
2023-02-12T06:59:06.620Z,43.01
2023-02-12T07:01:33.354Z,43.03
2023-02-12T07:04:03.822Z,42.78
2023-02-12T07:06:31.186Z,42.86
2023-02-12T07:08:58.607Z,42.88
2023-02-12T07:11:27.935Z,43.13
2023-02-12T07:13:54.660Z,42.92
2023-02-12T07:16:24.883Z,42.86
2023-02-12T07:18:51.708Z,43.35
2023-02-12T07:21:18.754Z,42.99
2023-02-12T07:23:50.867Z,43.49
2023-02-12T07:26:18.774Z,43.50
2023-02-12T07:28:45.464Z,43.79
2023-02-12T07:31:14.067Z,44.10
2023-02-12T07:33:41.349Z,43.85
2023-02-12T07:36:09.770Z,44.06
2023-02-12T07:38:39.994Z,43.73
2023-02-12T07:41:12.213Z,43.77
2023-02-12T07:43:39.961Z,44.24
2023-02-12T07:46:08.024Z,44.09
2023-02-12T07:48:34.851Z,43.81
2023-02-12T07:51:04.867Z,43.91
2023-02-12T07:53:32.043Z,43.72
2023-02-12T07:56:01.836Z,43.81
2023-02-12T07:58:28.550Z,43.81
2023-02-12T08:00:55.311Z,43.64
2023-02-12T08:03:22.047Z,43.22
2023-02-12T08:05:54.801Z,43.33
2023-02-12T08:08:21.770Z,42.93
2023-02-12T08:10:49.052Z,42.68
2023-02-12T08:13:15.741Z,42.76
2023-02-12T08:15:42.865Z,42.83
2023-02-12T08:18:09.596Z,42.30
2023-02-12T08:20:36.345Z,42.39
2023-02-12T08:23:03.211Z,42.23
2023-02-12T08:25:29.882Z,42.10
2023-02-12T08:27:56.602Z,41.86
2023-02-12T08:30:25.811Z,42.13
2023-02-12T08:32:52.658Z,42.00
2023-02-12T08:35:19.390Z,41.83
2023-02-12T08:37:46.166Z,41.76
2023-02-12T08:40:14.026Z,41.93
2023-02-12T08:42:41.449Z,41.52
2023-02-12T08:45:08.627Z,41.49
2023-02-12T08:47:35.346Z,41.45
2023-02-12T08:50:04.373Z,41.90
2023-02-12T08:52:31.092Z,41.40
2023-02-12T08:54:57.784Z,41.70
2023-02-12T08:57:24.496Z,41.58
2023-02-12T08:59:51.570Z,41.44
2023-02-12T09:02:18.936Z,41.72
2023-02-12T09:04:45.682Z,41.40
2023-02-12T09:07:12.760Z,41.76
2023-02-12T09:09:39.504Z,41.64
2023-02-12T09:12:06.228Z,41.60
2023-02-12T09:14:32.963Z,41.33
2023-02-12T09:16:59.729Z,40.94
2023-02-12T09:19:26.555Z,41.58
2023-02-12T09:21:56.022Z,41.32
2023-02-12T09:24:23.540Z,40.99
2023-02-12T09:26:52.843Z,41.46
2023-02-12T09:29:19.545Z,41.37
2023-02-12T09:31:46.660Z,41.25
2023-02-12T09:34:13.486Z,41.19
2023-02-12T09:36:40.313Z,41.53
2023-02-12T09:39:07.065Z,41.67
2023-02-12T09:41:35.506Z,42.01
2023-02-12T09:44:05.281Z,41.46
2023-02-12T09:46:34.811Z,40.56
2023-02-12T09:49:03.814Z,39.04
2023-02-12T09:51:31.600Z,39.26
2023-02-12T09:54:03.138Z,38.59
2023-02-12T09:56:30.944Z,39.10
2023-02-12T09:59:03.962Z,39.38
2023-02-12T10:02:02.055Z,39.72
2023-02-12T10:04:29.447Z,39.74
2023-02-12T10:06:59.426Z,39.77
2023-02-12T10:09:26.537Z,39.96
2023-02-12T10:11:56.733Z,40.10
2023-02-12T10:14:26.612Z,39.98
2023-02-12T10:16:56.487Z,39.77
2023-02-12T10:19:23.632Z,40.17
2023-02-12T10:21:50.878Z,39.69
2023-02-12T10:24:21.354Z,39.73
2023-02-12T10:26:49.774Z,40.14
2023-02-12T10:29:22.596Z,39.81
2023-02-12T10:31:53.469Z,40.10
2023-02-12T10:34:22.778Z,39.67
2023-02-12T10:36:50.654Z,39.54
2023-02-12T10:39:20.383Z,39.49
2023-02-12T10:41:49.764Z,39.48
2023-02-12T10:44:16.832Z,39.17
2023-02-12T10:46:43.734Z,39.36
2023-02-12T10:49:13.806Z,39.14
2023-02-12T10:51:43.565Z,39.03
2023-02-12T10:54:13.380Z,38.94
2023-02-12T10:56:40.171Z,39.03
2023-02-12T10:59:21.544Z,38.88
2023-02-12T11:01:51.392Z,38.93
2023-02-12T11:04:21.287Z,38.76
2023-02-12T11:06:51.160Z,39.16
2023-02-12T11:09:28.545Z,38.77
2023-02-12T11:11:55.549Z,39.05
2023-02-12T11:14:23.136Z,38.92
2023-02-12T11:16:53.459Z,38.62
2023-02-12T11:19:24.598Z,38.62
2023-02-12T11:22:06.388Z,38.54
2023-02-12T11:24:34.868Z,38.72
2023-02-12T11:27:10.008Z,38.69
2023-02-12T11:29:37.361Z,38.50
2023-02-12T11:32:05.718Z,38.85
2023-02-12T11:34:33.325Z,38.81
2023-02-12T11:37:01.761Z,38.24
2023-02-12T11:39:32.728Z,38.71
2023-02-12T11:41:59.853Z,38.37
2023-02-12T11:44:28.810Z,38.63
2023-02-12T11:47:03.977Z,38.56
2023-02-12T11:49:33.912Z,38.14
2023-02-12T11:52:02.473Z,38.25
2023-02-12T11:54:34.511Z,38.19
2023-02-12T11:57:01.589Z,38.19
2023-02-12T11:59:32.350Z,38.20
2023-02-12T12:02:05.266Z,38.63
2023-02-12T12:04:36.777Z,38.50
2023-02-12T12:07:06.610Z,38.68
2023-02-12T12:09:39.887Z,38.56
2023-02-12T12:12:09.786Z,38.84
2023-02-12T12:15:02.328Z,38.89
2023-02-12T12:17:35.211Z,38.74
2023-02-12T12:20:06.995Z,39.18
2023-02-12T12:22:37.685Z,38.86
2023-02-12T12:25:07.480Z,39.20
2023-02-12T12:27:40.925Z,39.03
2023-02-12T12:30:18.845Z,39.04
2023-02-12T12:32:50.532Z,39.33
2023-02-12T12:35:19.066Z,39.25
2023-02-12T12:37:46.313Z,39.37
2023-02-12T12:40:14.530Z,39.15
2023-02-12T12:42:53.457Z,39.66
2023-02-12T12:45:23.302Z,39.45
2023-02-12T12:47:53.112Z,39.64
2023-02-12T12:50:23.209Z,39.57
2023-02-12T12:52:58.642Z,39.18
2023-02-12T12:55:28.798Z,39.44
2023-02-12T12:57:59.217Z,39.61
2023-02-12T13:00:26.374Z,39.74
2023-02-12T13:02:56.268Z,39.92
2023-02-12T13:05:26.215Z,39.91
2023-02-12T13:08:05.252Z,40.04
2023-02-12T13:10:35.164Z,39.55
2023-02-12T13:13:05.291Z,39.80
2023-02-12T13:15:36.755Z,39.69
2023-02-12T13:18:04.285Z,39.92
2023-02-12T13:20:34.931Z,40.26
2023-02-12T13:23:04.763Z,42.34
2023-02-12T13:25:36.304Z,42.78
2023-02-12T13:28:05.271Z,43.18
2023-02-12T13:30:37.572Z,43.33
2023-02-12T13:33:18.697Z,43.51
2023-02-12T13:35:47.691Z,43.08
2023-02-12T13:38:19.599Z,42.56
2023-02-12T13:40:50.172Z,42.78
2023-02-12T13:43:28.930Z,42.27
2023-02-12T13:45:59.191Z,42.11
2023-02-12T13:48:26.506Z,42.22
2023-02-12T13:51:01.323Z,42.08
2023-02-12T13:53:36.459Z,42.36
2023-02-12T13:56:04.534Z,42.25
2023-02-12T13:58:35.510Z,41.99
2023-02-12T14:01:09.563Z,41.78
2023-02-12T14:03:37.277Z,41.95
2023-02-12T14:06:11.347Z,42.17
2023-02-12T14:08:42.429Z,42.11
2023-02-12T14:11:12.717Z,41.59
2023-02-12T14:13:42.524Z,41.52
2023-02-12T14:16:12.417Z,41.85
2023-02-12T14:18:41.514Z,41.74
2023-02-12T14:21:10.718Z,41.75
2023-02-12T14:23:38.500Z,41.32
2023-02-12T14:26:07.032Z,41.29
2023-02-12T14:28:36.929Z,41.58
2023-02-12T14:31:06.956Z,41.41
2023-02-12T14:33:33.747Z,41.34
2023-02-12T14:36:03.607Z,41.37
2023-02-12T14:38:36.813Z,41.26
2023-02-12T14:41:34.333Z,41.28
2023-02-12T14:44:04.112Z,41.15
2023-02-12T14:46:34.422Z,41.05
2023-02-12T14:49:06.258Z,40.87
2023-02-12T14:51:38.570Z,40.96
2023-02-12T14:54:10.731Z,40.42
2023-02-12T14:56:43.241Z,40.77
2023-02-12T14:59:12.911Z,40.52
2023-02-12T15:01:39.798Z,40.67
2023-02-12T15:04:09.584Z,40.33
2023-02-12T15:06:40.119Z,40.45
2023-02-12T15:09:10.154Z,40.06
2023-02-12T15:11:39.954Z,40.09
2023-02-12T15:14:11.824Z,40.07
2023-02-12T15:16:43.183Z,40.22
2023-02-12T15:19:11.499Z,40.34
2023-02-12T15:21:39.029Z,40.25
2023-02-12T15:24:09.323Z,40.20
2023-02-12T15:26:41.585Z,40.08
2023-02-12T15:29:12.702Z,40.00
2023-02-12T15:31:39.586Z,40.16
2023-02-12T15:34:06.865Z,39.74
2023-02-12T15:36:34.479Z,39.64
2023-02-12T15:39:04.606Z,39.51
2023-02-12T15:41:32.765Z,39.69
2023-02-12T15:44:00.800Z,39.68
2023-02-12T15:46:27.907Z,39.65
2023-02-12T15:48:55.923Z,39.90
2023-02-12T15:51:28.936Z,39.70
2023-02-12T15:53:56.972Z,39.95
2023-02-12T15:56:25.208Z,40.04
2023-02-12T15:58:54.072Z,40.04
2023-02-12T16:01:23.164Z,39.76
2023-02-12T16:03:52.878Z,40.11
2023-02-12T16:06:23.831Z,40.04
2023-02-12T16:08:56.018Z,39.94
2023-02-12T16:11:23.611Z,40.02
2023-02-12T16:13:53.701Z,40.00
2023-02-12T16:16:23.339Z,40.09
2023-02-12T16:18:53.228Z,40.23
2023-02-12T16:21:21.604Z,39.89
2023-02-12T16:23:50.469Z,40.40
2023-02-12T16:26:18.755Z,40.30
2023-02-12T16:28:48.632Z,40.09
2023-02-12T16:31:16.876Z,40.45
2023-02-12T16:33:48.050Z,40.23
2023-02-12T16:36:17.908Z,40.17
2023-02-12T16:38:46.890Z,40.20
2023-02-12T16:41:16.896Z,40.46
2023-02-12T16:43:43.956Z,40.12
2023-02-12T16:46:12.114Z,40.32
2023-02-12T16:48:42.202Z,40.44
2023-02-12T16:51:14.831Z,40.35
2023-02-12T16:53:44.671Z,40.17
2023-02-12T16:56:15.664Z,40.64
2023-02-12T16:58:42.828Z,40.79
2023-02-12T17:01:09.616Z,40.71
2023-02-12T17:03:37.812Z,40.89
2023-02-12T17:06:04.793Z,40.72
2023-02-12T17:08:36.883Z,40.81
2023-02-12T17:11:03.679Z,40.75
2023-02-12T17:13:30.571Z,40.53
2023-02-12T17:15:58.962Z,40.61
2023-02-12T17:18:28.889Z,40.71
2023-02-12T17:20:57.356Z,40.81
2023-02-12T17:23:24.576Z,41.17
2023-02-12T17:25:51.698Z,40.83
2023-02-12T17:28:18.495Z,41.15
2023-02-12T17:30:47.934Z,40.84
2023-02-12T17:33:16.065Z,41.35
2023-02-12T17:35:42.841Z,41.21
2023-02-12T17:38:09.829Z,41.33
2023-02-12T17:40:37.191Z,41.02
2023-02-12T17:43:05.710Z,41.21
2023-02-12T17:45:32.746Z,41.49
2023-02-12T17:47:59.580Z,41.55
2023-02-12T17:50:26.451Z,41.57
2023-02-12T17:52:53.312Z,41.56
2023-02-12T17:55:20.133Z,41.51
2023-02-12T17:57:46.931Z,41.16
2023-02-12T18:00:14.318Z,41.18
2023-02-12T18:02:41.170Z,41.39
2023-02-12T18:05:08.406Z,41.29
2023-02-12T18:07:35.784Z,41.34
2023-02-12T18:10:04.889Z,41.30
2023-02-12T18:12:34.789Z,41.16
2023-02-12T18:15:02.606Z,40.70
2023-02-12T18:17:29.633Z,40.65
2023-02-12T18:19:57.402Z,40.53
2023-02-12T18:22:24.536Z,40.53
2023-02-12T18:24:51.629Z,40.71
2023-02-12T18:27:18.849Z,40.80
2023-02-12T18:29:45.746Z,40.48
2023-02-12T18:32:16.590Z,40.38
2023-02-12T18:34:45.807Z,40.66
2023-02-12T18:37:13.954Z,40.22
2023-02-12T18:39:41.016Z,40.36
2023-02-12T18:42:13.856Z,40.07
2023-02-12T18:44:46.695Z,40.13
2023-02-12T18:47:13.490Z,40.05
2023-02-12T18:49:40.199Z,39.97
2023-02-12T18:52:07.700Z,40.04
2023-02-12T18:54:35.128Z,40.25
2023-02-12T18:57:02.179Z,40.20
2023-02-12T18:59:29.020Z,40.06
2023-02-12T19:01:56.001Z,39.66
2023-02-12T19:04:24.262Z,39.63
2023-02-12T19:06:52.550Z,39.76
2023-02-12T19:09:20.483Z,39.89
2023-02-12T19:11:48.454Z,39.83
2023-02-12T19:14:16.379Z,39.64
2023-02-12T19:16:45.132Z,39.38
2023-02-12T19:19:15.361Z,39.63
2023-02-12T19:21:42.615Z,39.64
2023-02-12T19:24:11.291Z,39.19
2023-02-12T19:26:38.131Z,39.13
2023-02-12T19:29:05.516Z,39.60
2023-02-12T19:31:36.220Z,39.46
2023-02-12T19:34:05.430Z,39.48
2023-02-12T19:36:34.056Z,39.58
2023-02-12T19:39:01.333Z,39.62
2023-02-12T19:41:29.112Z,39.67
2023-02-12T19:43:58.403Z,39.82
2023-02-12T19:46:26.159Z,39.86
2023-02-12T19:48:56.004Z,39.78
2023-02-12T19:51:26.441Z,39.81
2023-02-12T19:53:53.765Z,39.87
2023-02-12T19:56:20.871Z,39.68
2023-02-12T19:58:47.672Z,40.12
2023-02-12T20:01:16.774Z,39.63
2023-02-12T20:03:47.432Z,40.11
2023-02-12T20:06:17.359Z,40.03
2023-02-12T20:08:44.543Z,39.87
2023-02-12T20:11:12.691Z,39.74
2023-02-12T20:13:39.498Z,40.15
2023-02-12T20:16:08.072Z,40.20
2023-02-12T20:18:35.368Z,40.13
2023-02-12T20:21:08.044Z,39.93
2023-02-12T20:23:37.936Z,39.97
2023-02-12T20:26:06.386Z,40.25
2023-02-12T20:28:34.608Z,40.31
2023-02-12T20:31:07.938Z,40.30
2023-02-12T20:33:34.706Z,40.22
2023-02-12T20:36:01.362Z,40.15
2023-02-12T20:38:28.777Z,40.22
2023-02-12T20:41:00.746Z,40.19
2023-02-12T20:43:30.969Z,39.96
2023-02-12T20:46:03.674Z,39.93
2023-02-12T20:48:32.819Z,40.33
2023-02-12T20:51:06.189Z,40.25
2023-02-12T20:53:33.993Z,40.07
2023-02-12T20:56:01.690Z,40.33
2023-02-12T20:58:31.827Z,39.81
2023-02-12T21:01:01.624Z,40.12
2023-02-12T21:03:28.326Z,40.10
2023-02-12T21:05:55.394Z,39.78
2023-02-12T21:08:22.345Z,40.04
2023-02-12T21:10:49.472Z,39.97
2023-02-12T21:13:16.154Z,39.87
2023-02-12T21:15:43.020Z,39.78
2023-02-12T21:18:09.809Z,39.59
2023-02-12T21:20:36.503Z,39.58
2023-02-12T21:23:05.721Z,39.77
2023-02-12T21:25:32.522Z,39.49
2023-02-12T21:27:59.306Z,39.29
2023-02-12T21:30:29.170Z,39.89
2023-02-12T21:32:55.955Z,39.79
2023-02-12T21:35:22.718Z,39.65
2023-02-12T21:37:49.436Z,39.54
2023-02-12T21:40:16.291Z,39.32
2023-02-12T21:42:45.216Z,39.43
2023-02-12T21:45:12.618Z,39.14
2023-02-12T21:47:39.408Z,39.02
2023-02-12T21:50:06.741Z,39.17
2023-02-12T21:52:33.514Z,39.44
2023-02-12T21:55:03.430Z,39.24
2023-02-12T21:57:31.297Z,39.07
2023-02-12T21:59:58.088Z,39.18
2023-02-12T22:02:27.098Z,39.27
2023-02-12T22:04:54.531Z,38.89
2023-02-12T22:07:21.299Z,39.09
2023-02-12T22:09:48.476Z,39.09
2023-02-12T22:12:15.196Z,38.94
2023-02-12T22:14:42.102Z,39.01
2023-02-12T22:17:08.963Z,39.01
2023-02-12T22:19:36.180Z,38.78
2023-02-12T22:22:03.314Z,38.89
2023-02-12T22:24:30.248Z,38.57
2023-02-12T22:26:57.182Z,39.05
2023-02-12T22:29:24.135Z,38.68
2023-02-12T22:31:51.217Z,38.74
2023-02-12T22:34:19.227Z,38.71
2023-02-12T22:36:46.258Z,39.03
2023-02-12T22:39:14.400Z,39.02
2023-02-12T22:41:42.629Z,38.89
2023-02-12T22:44:10.418Z,39.00
2023-02-12T22:46:37.294Z,38.88
2023-02-12T22:49:04.509Z,38.96
2023-02-12T22:51:32.396Z,38.92
2023-02-12T22:53:59.610Z,38.70
2023-02-12T22:56:27.041Z,39.17
2023-02-12T22:58:55.249Z,39.20
2023-02-12T23:01:22.146Z,38.93
2023-02-12T23:03:49.149Z,39.29
2023-02-12T23:06:17.433Z,39.19
2023-02-12T23:08:44.725Z,39.38
2023-02-12T23:11:12.183Z,39.27
2023-02-12T23:13:39.344Z,39.14
2023-02-12T23:16:06.697Z,39.32
2023-02-12T23:18:33.891Z,39.11
2023-02-12T23:21:01.177Z,39.36
2023-02-12T23:23:28.381Z,39.45
2023-02-12T23:25:55.448Z,39.30
2023-02-12T23:28:22.680Z,39.40
2023-02-12T23:30:50.279Z,39.59
2023-02-12T23:33:17.343Z,39.79
2023-02-12T23:35:44.532Z,39.34
2023-02-12T23:38:11.684Z,39.51
2023-02-12T23:40:38.776Z,39.97
2023-02-12T23:43:05.830Z,39.72
2023-02-12T23:45:33.148Z,40.03
2023-02-12T23:48:00.001Z,39.82
2023-02-12T23:50:26.980Z,39.89
2023-02-12T23:52:53.846Z,40.17
2023-02-12T23:55:20.641Z,40.24
2023-02-12T23:57:48.139Z,40.35
